Pagrindinis puslapis
METAR-TAF:

METAR-TAF

Oro uostai :

Ibagė, Kolumbija

platuma: 04-26N, ilguma: 075-09W, Aukštis: 928 m

Dabartinis oras

Ataskaita buvo paskelbta 33 minutes, ne 13:00 UTC
Ramus vėjas
Temperatūra 23°C
Drėgmė 94%
Slėgis 1021 hPa
Matomumas 10 km arba daugiau
Išsisklaidę debesys ne aukštis 3000 ft
Su prošvaistėmis ne aukštis 10000 ft
Liūtis kaimynystėje

METAR: SKIB 281300Z 00000KT 9999 VCSH SCT030 BKN100 23/22 A3016 RMK VCSH/NW

Laikas: 08:33 (13:33 UTC)


TAF: trūkstamas

Orai ataskaitas ir orų prognozės (METAR, TAF).

turimą stotys yra geltonos ir raudonos taškus žemėlapyje.

Perkelti pele per norėdami pamatyti stoties vardą.

Tada spustelėkite, norėdami matyti oro stebėjimo ir prognozės.

Norėdami pakeisti žemėlapį: spustelėkite ant žalios mygtukų su juodo kryžiaus žemyn,; žalią mygtuką su brūkšneliu, jei norite nutolinti; arba žalių rodyklių gretimoms žemėlapius.


METAR-TAF: